Time;durP1;ratioP1;P1;durP2;ratioP2;P2;SDS_P1;SDS_P2;PMS_P1;PMS_P2;Temp;Humidity;BMP_temperature;BMP_pressure;BME280_temperature;BME280_humidity;BME280_pressure;Samples;Min_cycle;Max_cycle;Signal;HPM_P1;HPM_P2
2022/07/03 00:00:13;;;;;;;;;;;19.60;94.30;;;;;;4375674;32;42628;-79
2022/07/03 00:02:40;;;;;;;;;;;19.60;94.30;;;;;;4375620;32;43227;-80
2022/07/03 00:05:07;;;;;;;;;;;19.60;94.30;;;;;;4375602;32;43121;-80
2022/07/03 00:07:36;;;;;;;;;;;19.50;94.40;;;;;;4375638;32;44104;-79
2022/07/03 00:10:03;;;;;;;;;;;19.50;94.60;;;;;;4376115;32;44279;-79
2022/07/03 00:12:30;;;;;;;;;;;19.50;94.60;;;;;;4375966;32;44202;-79
2022/07/03 00:14:57;;;;;;;;;;;19.50;94.60;;;;;;4375842;32;43618;-80
2022/07/03 00:17:24;;;;;;;;;;;19.50;94.60;;;;;;4362592;32;38392;-79
2022/07/03 00:19:51;;;;;;;;;;;19.50;94.60;;;;;;4375546;32;43030;-79
2022/07/03 00:22:19;;;;;;;;;;;19.50;94.60;;;;;;4375509;32;43495;-79
2022/07/03 00:24:53;;;;;;;;;;;19.50;94.60;;;;;;4375294;32;44218;-79
2022/07/03 00:27:23;;;;;;;;;;;19.50;94.60;;;;;;4375653;32;44030;-79
2022/07/03 00:29:52;;;;;;;;;;;19.50;94.60;;;;;;4375715;32;43073;-79
2022/07/03 00:32:22;;;;;;;;;;;19.50;94.60;;;;;;4375317;32;42732;-79
2022/07/03 00:34:54;;;;;;;;;;;19.50;94.70;;;;;;4361745;32;43886;-79
2022/07/03 00:37:21;;;;;;;;;;;19.50;94.90;;;;;;4375462;32;42770;-79
2022/07/03 00:39:49;;;;;;;;;;;19.60;94.80;;;;;;4361666;32;44224;-79
2022/07/03 00:42:16;;;;;;;;;;;19.60;94.80;;;;;;4361680;32;44279;-79
2022/07/03 00:44:48;;;;;;;;;;;19.60;94.80;;;;;;4361638;32;44360;-79
2022/07/03 00:47:16;;;;;;;;;;;19.50;94.80;;;;;;4362311;32;43272;-79
2022/07/03 00:49:46;;;;;;;;;;;19.60;94.70;;;;;;4375245;32;42760;-79
2022/07/03 00:52:13;;;;;;;;;;;19.50;94.70;;;;;;4375278;32;43186;-79
2022/07/03 00:54:46;;;;;;;;;;;19.50;94.90;;;;;;4361539;32;44161;-79
2022/07/03 00:57:15;;;;;;;;;;;19.50;94.90;;;;;;4362062;32;42865;-79
2022/07/03 00:59:43;;;;;;;;;;;19.50;95.00;;;;;;4362289;32;19997;-79
2022/07/03 01:02:17;;;;;;;;;;;19.50;94.80;;;;;;4361546;32;43585;-79
2022/07/03 01:04:50;;;;;;;;;;;19.60;95.00;;;;;;4362013;32;43373;-80
2022/07/03 01:07:28;;;;;;;;;;;19.50;94.90;;;;;;4374853;32;42593;-80
2022/07/03 01:09:59;;;;;;;;;;;19.60;95.00;;;;;;4374761;32;44245;-80
2022/07/03 01:12:44;;;;;;;;;;;19.60;95.00;;;;;;4374700;32;42675;-80
2022/07/03 01:15:18;;;;;;;;;;;19.60;95.00;;;;;;4361791;32;43467;-80
2022/07/03 01:17:48;;;;;;;;;;;19.60;95.10;;;;;;4375318;32;43889;-80
2022/07/03 01:20:19;;;;;;;;;;;19.60;95.20;;;;;;4361349;32;43247;-80
2022/07/03 01:22:53;;;;;;;;;;;19.60;95.40;;;;;;4361785;32;43862;-80
2022/07/03 01:25:25;;;;;;;;;;;19.60;95.40;;;;;;4361601;32;43958;-80
2022/07/03 01:27:52;;;;;;;;;;;19.60;95.20;;;;;;4361206;32;44958;-79
2022/07/03 01:30:21;;;;;;;;;;;19.60;95.10;;;;;;4375823;32;20012;-80
2022/07/03 01:32:54;;;;;;;;;;;19.60;95.60;;;;;;4375157;32;42593;-80
2022/07/03 01:35:21;;;;;;;;;;;19.60;95.40;;;;;;4375134;32;44129;-80
2022/07/03 01:37:50;;;;;;;;;;;19.60;95.50;;;;;;4361138;32;42307;-79
2022/07/03 01:40:17;;;;;;;;;;;19.60;95.60;;;;;;4374535;32;42713;-79
2022/07/03 01:42:45;;;;;;;;;;;19.60;95.60;;;;;;4374478;32;44203;-79
2022/07/03 01:45:14;;;;;;;;;;;19.60;95.60;;;;;;4361520;32;43901;-79
2022/07/03 01:47:42;;;;;;;;;;;19.60;95.40;;;;;;4374691;32;43420;-80
2022/07/03 01:50:13;;;;;;;;;;;19.60;95.40;;;;;;4361645;32;43559;-80
2022/07/03 01:52:41;;;;;;;;;;;19.60;95.30;;;;;;4374376;32;42508;-80
2022/07/03 01:55:12;;;;;;;;;;;19.60;95.40;;;;;;4374895;32;45508;-80
2022/07/03 01:57:43;;;;;;;;;;;19.60;95.50;;;;;;4374389;32;42620;-80
2022/07/03 02:00:11;;;;;;;;;;;19.50;95.40;;;;;;4360862;32;44151;-80
2022/07/03 02:03:01;;;;;;;;;;;19.60;95.40;;;;;;4375219;32;20512;-80
2022/07/03 02:05:30;;;;;;;;;;;19.50;95.40;;;;;;4366837;32;45080;-79
2022/07/03 02:08:00;;;;;;;;;;;19.50;95.40;;;;;;4374309;32;42592;-79
2022/07/03 02:10:28;;;;;;;;;;;19.60;95.40;;;;;;4374684;32;42608;-79
2022/07/03 02:13:16;;;;;;;;;;;19.60;95.50;;;;;;4360883;32;43437;-80
2022/07/03 02:15:44;;;;;;;;;;;19.50;95.40;;;;;;4361167;32;45342;-79
2022/07/03 02:18:17;;;;;;;;;;;19.50;95.40;;;;;;4361235;32;44362;-80
2022/07/03 02:20:46;;;;;;;;;;;19.50;95.50;;;;;;4362632;32;44057;-80
2022/07/03 02:23:13;;;;;;;;;;;19.50;95.50;;;;;;4363749;32;43275;-79
2022/07/03 02:25:44;;;;;;;;;;;19.50;95.50;;;;;;4377023;32;44326;-78
2022/07/03 02:28:16;;;;;;;;;;;19.50;95.40;;;;;;4377406;32;44090;-79
2022/07/03 02:30:47;;;;;;;;;;;19.50;95.50;;;;;;4363603;32;44116;-79
2022/07/03 02:33:18;;;;;;;;;;;19.50;95.50;;;;;;4364572;32;20369;-80
2022/07/03 02:35:47;;;;;;;;;;;19.50;95.40;;;;;;4363607;32;43178;-79
2022/07/03 02:38:20;;;;;;;;;;;19.40;95.50;;;;;;4377050;32;42910;-79
2022/07/03 02:41:01;;;;;;;;;;;19.40;95.40;;;;;;4377163;32;44506;-79
2022/07/03 02:43:28;;;;;;;;;;;19.40;95.40;;;;;;4363446;32;42670;-78
2022/07/03 02:46:00;;;;;;;;;;;19.40;95.50;;;;;;4363310;32;42757;-80
2022/07/03 02:48:35;;;;;;;;;;;19.40;95.40;;;;;;4376996;32;43535;-77
2022/07/03 02:51:05;;;;;;;;;;;19.40;95.30;;;;;;4377038;32;43029;-78
2022/07/03 02:53:48;;;;;;;;;;;19.30;95.40;;;;;;4377103;32;43894;-78
2022/07/03 02:56:21;;;;;;;;;;;19.30;95.50;;;;;;4377073;32;43782;-78
2022/07/03 02:59:07;;;;;;;;;;;19.40;95.40;;;;;;4363295;32;43791;-78
2022/07/03 03:01:34;;;;;;;;;;;19.30;95.40;;;;;;4376340;32;43324;-79
2022/07/03 03:04:01;;;;;;;;;;;19.30;95.40;;;;;;4363587;32;43009;-79
2022/07/03 03:06:29;;;;;;;;;;;19.30;95.40;;;;;;4377026;32;43577;-79
2022/07/03 03:08:59;;;;;;;;;;;19.30;95.30;;;;;;4362979;32;43455;-79
2022/07/03 03:11:40;;;;;;;;;;;19.20;95.30;;;;;;4376980;32;45220;-79
2022/07/03 03:14:08;;;;;;;;;;;19.20;95.20;;;;;;4376979;32;44952;-79
2022/07/03 03:16:36;;;;;;;;;;;19.20;95.30;;;;;;4376816;32;44351;-78
2022/07/03 03:19:03;;;;;;;;;;;19.20;95.40;;;;;;4376732;32;44220;-79
2022/07/03 03:21:31;;;;;;;;;;;19.20;95.30;;;;;;4376673;32;42884;-80
2022/07/03 03:23:58;;;;;;;;;;;19.20;95.30;;;;;;4376847;32;44259;-79
2022/07/03 03:26:28;;;;;;;;;;;19.10;95.40;;;;;;4376353;32;45963;-79
2022/07/03 03:28:55;;;;;;;;;;;19.10;95.40;;;;;;4363230;32;43450;-79
2022/07/03 03:31:22;;;;;;;;;;;19.10;95.50;;;;;;4376331;32;43447;-78
2022/07/03 03:33:50;;;;;;;;;;;19.10;95.50;;;;;;4377037;32;20008;-79
2022/07/03 03:36:18;;;;;;;;;;;19.10;95.50;;;;;;4376614;32;43520;-79
2022/07/03 03:38:45;;;;;;;;;;;19.00;95.40;;;;;;4376106;32;42923;-79
2022/07/03 03:41:12;;;;;;;;;;;19.00;95.40;;;;;;4376336;32;44017;-79
2022/07/03 03:43:44;;;;;;;;;;;19.00;95.50;;;;;;4376552;32;44231;-78
2022/07/03 03:46:11;;;;;;;;;;;19.00;95.50;;;;;;4362438;32;44709;-79
2022/07/03 03:48:38;;;;;;;;;;;19.00;95.50;;;;;;4376448;32;44013;-79
2022/07/03 03:51:07;;;;;;;;;;;19.00;95.60;;;;;;4362915;32;43232;-79
2022/07/03 03:53:34;;;;;;;;;;;19.00;95.50;;;;;;4362921;32;44171;-79
2022/07/03 03:56:03;;;;;;;;;;;19.00;95.50;;;;;;4376311;32;43364;-79
2022/07/03 03:58:31;;;;;;;;;;;19.00;95.60;;;;;;4362781;32;43166;-79
2022/07/03 04:00:58;;;;;;;;;;;18.90;95.60;;;;;;4376007;32;43569;-79
2022/07/03 04:03:27;;;;;;;;;;;18.90;95.60;;;;;;4375569;32;43942;-79
2022/07/03 04:05:54;;;;;;;;;;;18.90;95.60;;;;;;4375634;32;43803;-79
2022/07/03 04:08:22;;;;;;;;;;;18.90;95.60;;;;;;4375779;32;44451;-79
2022/07/03 04:10:49;;;;;;;;;;;18.90;95.70;;;;;;4362199;32;42277;-79
2022/07/03 04:13:16;;;;;;;;;;;18.90;95.70;;;;;;4376045;32;44143;-79
2022/07/03 04:15:43;;;;;;;;;;;18.90;95.70;;;;;;4375806;32;46067;-79
2022/07/03 04:18:10;;;;;;;;;;;18.80;95.70;;;;;;4362020;32;43772;-79
2022/07/03 04:20:37;;;;;;;;;;;18.80;95.80;;;;;;4361915;32;43879;-79
2022/07/03 04:23:05;;;;;;;;;;;18.80;95.90;;;;;;4375629;32;43753;-79
2022/07/03 04:25:32;;;;;;;;;;;18.80;95.90;;;;;;4375824;32;44198;-79
2022/07/03 04:27:59;;;;;;;;;;;18.70;96.00;;;;;;4375698;32;42744;-79
2022/07/03 04:30:46;;;;;;;;;;;18.70;96.00;;;;;;4375090;32;43915;-79
2022/07/03 04:33:13;;;;;;;;;;;18.70;96.00;;;;;;4375442;32;43869;-79
2022/07/03 04:35:40;;;;;;;;;;;18.70;96.10;;;;;;4375472;32;42220;-79
2022/07/03 04:38:07;;;;;;;;;;;18.70;96.20;;;;;;4362089;32;43921;-79
2022/07/03 04:40:35;;;;;;;;;;;18.70;96.20;;;;;;4375476;32;43643;-78
2022/07/03 04:43:02;;;;;;;;;;;18.70;96.20;;;;;;4361890;32;43372;-78
2022/07/03 04:45:29;;;;;;;;;;;18.70;96.20;;;;;;4375156;32;44329;-79
2022/07/03 04:47:56;;;;;;;;;;;18.70;96.30;;;;;;4361713;32;42696;-79
2022/07/03 04:50:23;;;;;;;;;;;18.70;96.30;;;;;;4375135;32;43897;-79
2022/07/03 04:52:50;;;;;;;;;;;18.70;96.50;;;;;;4361843;32;44155;-79
2022/07/03 04:55:17;;;;;;;;;;;18.70;96.50;;;;;;4362079;32;43180;-79
2022/07/03 04:57:44;;;;;;;;;;;18.70;96.50;;;;;;4375409;32;42731;-79
2022/07/03 05:00:11;;;;;;;;;;;18.70;96.70;;;;;;4374947;32;43968;-80
2022/07/03 05:02:38;;;;;;;;;;;18.70;96.80;;;;;;4375105;32;41946;-79
2022/07/03 05:05:07;;;;;;;;;;;18.70;96.80;;;;;;4374839;32;42308;-80
2022/07/03 05:07:34;;;;;;;;;;;18.70;96.80;;;;;;4374807;32;44229;-80
2022/07/03 05:10:01;;;;;;;;;;;18.70;97.00;;;;;;4375162;32;43453;-79
2022/07/03 05:12:28;;;;;;;;;;;18.70;97.00;;;;;;4361381;32;44223;-79
2022/07/03 05:14:55;;;;;;;;;;;18.70;97.00;;;;;;4375211;32;44773;-79
2022/07/03 05:17:22;;;;;;;;;;;18.70;97.10;;;;;;4361462;32;43064;-80
2022/07/03 05:20:23;;;;;;;;;;;18.70;97.10;;;;;;4361070;32;44228;-79
2022/07/03 05:22:40;;;;;;;;;;;18.70;97.30;;;;;;4375027;32;44121;-80
2022/07/03 05:25:07;;;;;;;;;;;18.70;97.30;;;;;;4360995;32;44166;-79
2022/07/03 05:27:37;;;;;;;;;;;18.70;97.20;;;;;;4374990;32;43220;-80
2022/07/03 05:30:05;;;;;;;;;;;18.70;97.20;;;;;;4375072;32;43603;-80
2022/07/03 05:32:32;;;;;;;;;;;18.70;97.30;;;;;;4374853;32;46019;-79
2022/07/03 05:35:02;;;;;;;;;;;18.70;97.10;;;;;;4374516;32;43925;-79
2022/07/03 05:37:29;;;;;;;;;;;18.70;97.10;;;;;;4374955;32;44188;-80
2022/07/03 05:39:56;;;;;;;;;;;18.70;97.10;;;;;;4361030;32;44216;-80
2022/07/03 05:42:23;;;;;;;;;;;18.70;97.10;;;;;;4361234;32;43870;-80
2022/07/03 05:44:50;;;;;;;;;;;18.70;97.10;;;;;;4361357;32;43164;-80
2022/07/03 05:47:17;;;;;;;;;;;18.70;97.20;;;;;;4360951;32;43798;-80
2022/07/03 05:49:44;;;;;;;;;;;18.70;97.20;;;;;;4374834;32;43203;-79
2022/07/03 05:52:12;;;;;;;;;;;18.70;97.00;;;;;;4361604;32;44189;-80
2022/07/03 05:54:39;;;;;;;;;;;18.70;96.90;;;;;;4374420;32;43735;-81
2022/07/03 05:57:07;;;;;;;;;;;18.70;96.90;;;;;;4364261;32;43370;-80
2022/07/03 05:59:34;;;;;;;;;;;18.70;96.90;;;;;;4364039;32;43308;-80
2022/07/03 06:02:03;;;;;;;;;;;18.70;97.00;;;;;;4377487;32;43045;-80
2022/07/03 06:04:31;;;;;;;;;;;18.70;96.80;;;;;;4364274;32;43745;-80
2022/07/03 06:06:58;;;;;;;;;;;18.70;96.80;;;;;;4364046;32;43932;-81
2022/07/03 06:09:25;;;;;;;;;;;18.70;96.70;;;;;;4363977;32;44343;-80
2022/07/03 06:11:52;;;;;;;;;;;18.70;96.80;;;;;;4377812;32;43989;-81
2022/07/03 06:14:19;;;;;;;;;;;18.70;96.80;;;;;;4363722;32;45063;-80
2022/07/03 06:16:46;;;;;;;;;;;18.70;96.70;;;;;;4377261;32;43249;-80
2022/07/03 06:19:14;;;;;;;;;;;18.70;96.70;;;;;;4377652;32;43022;-75
2022/07/03 06:21:41;;;;;;;;;;;18.70;96.60;;;;;;4377061;32;43291;-76
2022/07/03 06:24:08;;;;;;;;;;;18.70;96.60;;;;;;4376949;32;43065;-76
2022/07/03 06:26:35;;;;;;;;;;;18.70;96.60;;;;;;4363807;32;43816;-77
2022/07/03 06:29:03;;;;;;;;;;;18.70;96.50;;;;;;4376841;32;44164;-77
2022/07/03 06:31:31;;;;;;;;;;;18.70;96.50;;;;;;4376702;32;45308;-76
2022/07/03 06:33:58;;;;;;;;;;;18.70;96.40;;;;;;4377027;32;43671;-77
2022/07/03 06:36:25;;;;;;;;;;;18.70;96.50;;;;;;4377418;32;44198;-76
2022/07/03 06:38:52;;;;;;;;;;;18.70;96.50;;;;;;4377366;32;43895;-76
2022/07/03 06:41:19;;;;;;;;;;;18.70;96.50;;;;;;4363224;32;43903;-76
2022/07/03 06:43:46;;;;;;;;;;;18.70;96.50;;;;;;4376673;32;43511;-77
2022/07/03 06:46:14;;;;;;;;;;;18.70;96.40;;;;;;4363271;32;43261;-77
2022/07/03 06:48:41;;;;;;;;;;;18.70;96.40;;;;;;4363608;32;45380;-77
2022/07/03 06:51:08;;;;;;;;;;;18.70;96.50;;;;;;4364487;32;20347;-76
2022/07/03 06:53:42;;;;;;;;;;;18.70;96.50;;;;;;4377097;32;38948;-77
2022/07/03 06:56:12;;;;;;;;;;;18.70;96.60;;;;;;4376870;32;45017;-76
2022/07/03 06:58:40;;;;;;;;;;;18.70;96.60;;;;;;4377604;32;19997;-76
2022/07/03 07:01:07;;;;;;;;;;;18.70;96.50;;;;;;4376342;32;43824;-76
2022/07/03 07:03:34;;;;;;;;;;;18.70;96.50;;;;;;4376692;32;42324;-77
2022/07/03 07:06:01;;;;;;;;;;;18.70;96.60;;;;;;4363381;32;42642;-77
2022/07/03 07:08:28;;;;;;;;;;;18.70;96.50;;;;;;4375841;32;43511;-77
2022/07/03 07:10:55;;;;;;;;;;;18.70;96.60;;;;;;4376820;32;42541;-76
2022/07/03 07:13:22;;;;;;;;;;;18.70;96.60;;;;;;4376787;32;43227;-76
2022/07/03 07:15:49;;;;;;;;;;;18.70;96.60;;;;;;4363559;32;44073;-77
2022/07/03 07:18:16;;;;;;;;;;;18.80;96.50;;;;;;4363197;32;43223;-80
2022/07/03 07:20:43;;;;;;;;;;;18.70;96.40;;;;;;4362931;32;43471;-77
2022/07/03 07:23:10;;;;;;;;;;;18.70;96.40;;;;;;4376347;32;43374;-78
2022/07/03 07:25:37;;;;;;;;;;;18.80;96.50;;;;;;4376761;32;44931;-77
2022/07/03 07:28:10;;;;;;;;;;;18.70;96.50;;;;;;4363871;32;44067;-77
2022/07/03 07:30:39;;;;;;;;;;;18.70;96.60;;;;;;4362756;32;42795;-76
2022/07/03 07:33:07;;;;;;;;;;;18.70;96.70;;;;;;4376185;32;44131;-77
2022/07/03 07:35:34;;;;;;;;;;;18.70;96.70;;;;;;4363619;32;19993;-77
2022/07/03 07:38:01;;;;;;;;;;;18.80;96.70;;;;;;4376387;32;43872;-77
2022/07/03 07:40:34;;;;;;;;;;;18.80;96.60;;;;;;4375789;32;42716;-77
2022/07/03 07:43:02;;;;;;;;;;;18.70;96.60;;;;;;4362433;32;43899;-76
2022/07/03 07:45:29;;;;;;;;;;;18.80;96.70;;;;;;4362313;32;43823;-78
2022/07/03 07:47:56;;;;;;;;;;;18.80;96.60;;;;;;4362771;32;43085;-76
2022/07/03 07:50:23;;;;;;;;;;;18.80;96.60;;;;;;4375766;32;45807;-78
2022/07/03 07:52:50;;;;;;;;;;;18.80;96.70;;;;;;4376244;32;42874;-76
2022/07/03 07:55:18;;;;;;;;;;;18.80;96.80;;;;;;4376303;32;43149;-78
2022/07/03 07:57:45;;;;;;;;;;;18.80;96.70;;;;;;4362484;32;42792;-78
2022/07/03 08:00:14;;;;;;;;;;;18.80;96.60;;;;;;4375767;32;44246;-76
2022/07/03 08:05:36;;;;;;;;;;;18.80;96.80;;;;;;4375807;32;44231;-79
2022/07/03 08:08:10;;;;;;;;;;;18.80;96.60;;;;;;4376174;32;42661;-78
2022/07/03 08:10:43;;;;;;;;;;;18.80;96.80;;;;;;4362406;32;43466;-77
2022/07/03 08:13:11;;;;;;;;;;;18.80;96.80;;;;;;4362447;32;43852;-78
2022/07/03 08:15:38;;;;;;;;;;;18.90;96.70;;;;;;4361806;32;44639;-78
2022/07/03 08:18:05;;;;;;;;;;;18.80;97.00;;;;;;4361684;32;43859;-78
2022/07/03 08:20:33;;;;;;;;;;;18.90;96.80;;;;;;4362237;32;44486;-77
2022/07/03 08:23:00;;;;;;;;;;;18.80;96.90;;;;;;4375324;32;44616;-77
2022/07/03 08:25:27;;;;;;;;;;;18.90;96.80;;;;;;4375325;32;43072;-77
2022/07/03 08:27:54;;;;;;;;;;;18.90;96.90;;;;;;4375232;32;42550;-77
2022/07/03 08:30:21;;;;;;;;;;;18.90;96.90;;;;;;4362224;32;42824;-77
2022/07/03 08:32:50;;;;;;;;;;;18.90;96.80;;;;;;4375105;32;44627;-76
2022/07/03 08:35:17;;;;;;;;;;;18.90;96.90;;;;;;4375336;32;43505;-77
2022/07/03 08:37:46;;;;;;;;;;;18.90;97.00;;;;;;4375185;32;42537;-78
2022/07/03 08:40:16;;;;;;;;;;;18.90;97.10;;;;;;4361830;32;41979;-78
2022/07/03 08:42:47;;;;;;;;;;;18.90;97.00;;;;;;4375656;32;44797;-78
2022/07/03 08:45:18;;;;;;;;;;;18.90;96.90;;;;;;4362272;32;42258;-78
2022/07/03 08:47:46;;;;;;;;;;;19.00;97.00;;;;;;4361741;32;43854;-80
2022/07/03 08:50:18;;;;;;;;;;;19.00;96.80;;;;;;4375027;32;42875;-76
2022/07/03 08:52:46;;;;;;;;;;;19.00;96.90;;;;;;4374893;32;44609;-79
2022/07/03 08:55:14;;;;;;;;;;;19.00;96.90;;;;;;4375244;32;43491;-78
2022/07/03 08:57:42;;;;;;;;;;;19.00;96.80;;;;;;4375300;32;43478;-78
2022/07/03 09:00:13;;;;;;;;;;;19.00;96.70;;;;;;4375022;32;43816;-77
2022/07/03 09:02:43;;;;;;;;;;;19.00;96.70;;;;;;4359051;32;43950;-77
2022/07/03 09:05:11;;;;;;;;;;;19.00;96.90;;;;;;4359018;32;44029;-80
2022/07/03 09:07:42;;;;;;;;;;;19.00;96.60;;;;;;4358892;32;42498;-80
2022/07/03 09:10:14;;;;;;;;;;;19.00;96.70;;;;;;4360543;32;43946;-80
2022/07/03 09:12:43;;;;;;;;;;;19.00;96.50;;;;;;4358727;32;43264;-80
2022/07/03 09:15:10;;;;;;;;;;;19.00;96.50;;;;;;4358846;32;44101;-79
2022/07/03 09:17:37;;;;;;;;;;;19.00;96.60;;;;;;4359867;32;42901;-80
2022/07/03 09:20:05;;;;;;;;;;;19.10;96.70;;;;;;4359902;32;43939;-79
2022/07/03 09:22:34;;;;;;;;;;;19.00;96.70;;;;;;4358793;32;44640;-79
2022/07/03 09:25:08;;;;;;;;;;;19.00;96.70;;;;;;4359618;32;44271;-80
2022/07/03 09:27:36;;;;;;;;;;;19.00;96.60;;;;;;4360362;32;43841;-78
2022/07/03 09:30:08;;;;;;;;;;;19.10;96.70;;;;;;4358043;32;45900;-79
2022/07/03 09:32:38;;;;;;;;;;;19.00;96.80;;;;;;4358918;32;42060;-79
2022/07/03 09:35:22;;;;;;;;;;;19.10;96.80;;;;;;4358823;32;44258;-78
2022/07/03 09:37:52;;;;;;;;;;;19.10;96.80;;;;;;4360222;32;43505;-79
2022/07/03 09:40:20;;;;;;;;;;;19.10;96.80;;;;;;4358955;33;44051;-79
2022/07/03 09:43:00;;;;;;;;;;;19.10;96.80;;;;;;4358396;33;44115;-79
2022/07/03 09:45:27;;;;;;;;;;;19.10;96.80;;;;;;4359505;33;44083;-78
2022/07/03 09:47:54;;;;;;;;;;;19.10;97.10;;;;;;4359455;33;43486;-79
2022/07/03 09:50:41;;;;;;;;;;;19.10;97.00;;;;;;4359943;33;46338;-78
2022/07/03 09:53:09;;;;;;;;;;;19.20;97.10;;;;;;4359581;33;43737;-78
2022/07/03 09:55:36;;;;;;;;;;;19.10;97.30;;;;;;4359971;33;44334;-77
2022/07/03 09:58:03;;;;;;;;;;;19.20;97.40;;;;;;4359927;33;42357;-80
2022/07/03 10:00:31;;;;;;;;;;;19.20;97.30;;;;;;4358466;33;44935;-81
2022/07/03 10:02:58;;;;;;;;;;;19.20;97.10;;;;;;4358185;33;44198;-78
2022/07/03 10:05:36;;;;;;;;;;;19.20;97.00;;;;;;4359400;33;43440;-79
2022/07/03 10:08:04;;;;;;;;;;;19.20;97.10;;;;;;4360437;33;20059;-79
2022/07/03 10:10:33;;;;;;;;;;;19.20;97.00;;;;;;4358417;33;43107;-79
2022/07/03 10:13:00;;;;;;;;;;;19.20;97.00;;;;;;4358254;33;43762;-79
2022/07/03 10:15:29;;;;;;;;;;;19.30;97.30;;;;;;4358196;33;43101;-79
2022/07/03 10:17:56;;;;;;;;;;;19.30;97.20;;;;;;4358978;33;45162;-77
2022/07/03 10:20:27;;;;;;;;;;;19.30;97.30;;;;;;4359419;33;42930;-80
2022/07/03 10:22:54;;;;;;;;;;;19.30;97.30;;;;;;4358106;33;43300;-78
2022/07/03 10:25:22;;;;;;;;;;;19.40;97.40;;;;;;4358665;33;43933;-79
2022/07/03 10:27:51;;;;;;;;;;;19.40;97.20;;;;;;4359688;33;43302;-77
2022/07/03 10:30:21;;;;;;;;;;;19.40;97.10;;;;;;4359705;33;43877;-78
2022/07/03 10:32:49;;;;;;;;;;;19.40;97.20;;;;;;4358135;33;43287;-77
2022/07/03 10:35:32;;;;;;;;;;;19.40;97.40;;;;;;4359122;33;43917;-76
2022/07/03 10:38:02;;;;;;;;;;;19.40;97.40;;;;;;4358731;33;43287;-78
2022/07/03 10:46:26;;;;;;;;;;;19.50;97.10;;;;;;4362107;32;46037;-79
2022/07/03 10:48:53;;;;;;;;;;;19.50;97.10;;;;;;4362146;32;44246;-78
2022/07/03 10:51:21;;;;;;;;;;;19.50;96.50;;;;;;4360805;32;43593;-77
2022/07/03 10:53:49;;;;;;;;;;;19.50;96.70;;;;;;4361699;32;43263;-77
2022/07/03 10:56:16;;;;;;;;;;;19.60;96.70;;;;;;4362026;32;43865;-79
2022/07/03 10:58:56;;;;;;;;;;;19.50;96.70;;;;;;4361857;32;42921;-79
2022/07/03 11:01:27;;;;;;;;;;;19.60;96.80;;;;;;4360638;32;44335;-79
2022/07/03 11:03:59;;;;;;;;;;;19.60;96.50;;;;;;4363235;32;42528;-78
2022/07/03 11:06:44;;;;;;;;;;;19.70;96.90;;;;;;4362999;32;42852;-78
2022/07/03 11:09:12;;;;;;;;;;;19.70;96.90;;;;;;4377362;32;20327;-78
2022/07/03 11:11:55;;;;;;;;;;;19.70;96.70;;;;;;4376821;32;42946;-79
2022/07/03 11:14:23;;;;;;;;;;;19.70;96.60;;;;;;4363359;32;43158;-80
2022/07/03 11:17:09;;;;;;;;;;;19.70;96.50;;;;;;4376239;32;43243;-80
2022/07/03 11:19:37;;;;;;;;;;;19.80;96.50;;;;;;4363034;32;43459;-79
2022/07/03 11:22:09;;;;;;;;;;;19.80;96.70;;;;;;4376027;32;44244;-80
2022/07/03 11:24:43;;;;;;;;;;;19.80;96.50;;;;;;4376550;32;44178;-77
2022/07/03 11:27:12;;;;;;;;;;;19.90;96.70;;;;;;4376395;32;43313;-76
2022/07/03 11:29:39;;;;;;;;;;;19.90;96.40;;;;;;4362802;32;42381;-77
2022/07/03 11:32:25;;;;;;;;;;;19.90;96.20;;;;;;4376386;32;44123;-77
2022/07/03 11:34:52;;;;;;;;;;;19.90;96.20;;;;;;4375939;32;45052;-77
2022/07/03 11:37:19;;;;;;;;;;;20.00;96.60;;;;;;4362575;32;44610;-76
2022/07/03 11:39:48;;;;;;;;;;;20.00;96.60;;;;;;4376481;32;43576;-77
2022/07/03 11:42:18;;;;;;;;;;;20.00;96.60;;;;;;4362598;32;44720;-76
2022/07/03 11:44:46;;;;;;;;;;;20.00;96.70;;;;;;4376303;32;44816;-77
2022/07/03 11:47:14;;;;;;;;;;;20.00;96.20;;;;;;4376098;32;45903;-77
2022/07/03 11:49:47;;;;;;;;;;;20.00;96.20;;;;;;4362868;32;30169;-78
2022/07/03 11:52:30;;;;;;;;;;;20.00;95.90;;;;;;4363087;32;43148;-77
2022/07/03 11:54:58;;;;;;;;;;;20.00;96.00;;;;;;4362796;32;44156;-77
2022/07/03 11:57:25;;;;;;;;;;;20.10;95.80;;;;;;4375926;32;44140;-77
2022/07/03 11:59:54;;;;;;;;;;;20.00;95.60;;;;;;4376073;32;44855;-78
2022/07/03 12:02:21;;;;;;;;;;;20.00;95.90;;;;;;4362427;32;45943;-76
2022/07/03 12:04:48;;;;;;;;;;;20.00;96.00;;;;;;4376057;32;43803;-77
2022/07/03 12:07:15;;;;;;;;;;;20.10;95.60;;;;;;4375702;32;43695;-77
2022/07/03 12:09:42;;;;;;;;;;;20.10;96.00;;;;;;4376431;32;20402;-77
2022/07/03 12:12:10;;;;;;;;;;;20.10;96.30;;;;;;4362455;32;44206;-76
2022/07/03 12:14:38;;;;;;;;;;;20.10;95.70;;;;;;4362533;32;43203;-78
2022/07/03 12:17:07;;;;;;;;;;;20.10;95.70;;;;;;4361953;32;43059;-77
2022/07/03 12:19:35;;;;;;;;;;;20.10;95.80;;;;;;4375876;32;43508;-78
2022/07/03 12:22:02;;;;;;;;;;;20.10;96.00;;;;;;4362116;32;42910;-78
2022/07/03 12:24:29;;;;;;;;;;;20.20;96.10;;;;;;4375478;32;43005;-77
2022/07/03 12:27:01;;;;;;;;;;;20.10;96.10;;;;;;4375578;32;45214;-76
2022/07/03 12:29:28;;;;;;;;;;;20.20;96.20;;;;;;4361859;32;43037;-79
2022/07/03 12:31:55;;;;;;;;;;;20.20;96.10;;;;;;4361698;32;43798;-78
2022/07/03 12:34:22;;;;;;;;;;;20.20;96.10;;;;;;4361695;32;43354;-79
2022/07/03 12:36:57;;;;;;;;;;;20.30;96.40;;;;;;4362484;32;43105;-76
2022/07/03 12:39:45;;;;;;;;;;;20.30;95.90;;;;;;4361610;32;44072;-79
2022/07/03 12:42:15;;;;;;;;;;;20.20;96.10;;;;;;4364959;32;43139;-80
2022/07/03 12:44:42;;;;;;;;;;;20.30;96.30;;;;;;4375519;32;43027;-77
2022/07/03 12:47:10;;;;;;;;;;;20.30;96.30;;;;;;4361978;32;42925;-79
2022/07/03 12:49:38;;;;;;;;;;;20.30;95.80;;;;;;4375514;32;44106;-81
2022/07/03 12:52:05;;;;;;;;;;;20.30;96.00;;;;;;4361472;32;44554;-77
2022/07/03 12:54:32;;;;;;;;;;;20.40;96.20;;;;;;4374788;32;44334;-76
2022/07/03 13:00:11;;;;;;;;;;;20.40;95.60;;;;;;4375347;32;44751;-78
2022/07/03 13:02:39;;;;;;;;;;;20.40;95.70;;;;;;4374562;32;42636;-77
2022/07/03 13:05:26;;;;;;;;;;;20.50;95.90;;;;;;4360963;32;44083;-78
2022/07/03 13:07:54;;;;;;;;;;;20.50;96.10;;;;;;4362014;32;44281;-78
2022/07/03 13:10:23;;;;;;;;;;;20.50;95.60;;;;;;4361533;32;43882;-79
2022/07/03 13:12:52;;;;;;;;;;;20.60;95.30;;;;;;4361268;32;42547;-76
2022/07/03 13:15:19;;;;;;;;;;;20.60;95.70;;;;;;4375514;32;43339;-77
2022/07/03 13:17:53;;;;;;;;;;;20.60;95.40;;;;;;4374822;32;43244;-76
2022/07/03 13:20:20;;;;;;;;;;;20.60;95.60;;;;;;4361468;32;44335;-78
2022/07/03 13:22:48;;;;;;;;;;;20.60;95.30;;;;;;4361759;32;44067;-78
2022/07/03 13:25:15;;;;;;;;;;;20.70;95.50;;;;;;4361059;32;44876;-78
2022/07/03 13:27:45;;;;;;;;;;;20.70;95.20;;;;;;4361500;32;44163;-77
2022/07/03 13:30:16;;;;;;;;;;;20.70;94.90;;;;;;4361103;32;44334;-79
2022/07/03 13:32:43;;;;;;;;;;;20.70;94.80;;;;;;4361538;32;46070;-78
2022/07/03 13:35:10;;;;;;;;;;;20.80;95.30;;;;;;4374260;32;45255;-79
2022/07/03 13:37:38;;;;;;;;;;;20.70;95.10;;;;;;4374467;32;45925;-79
2022/07/03 13:40:05;;;;;;;;;;;20.70;95.20;;;;;;4375017;32;43319;-78
2022/07/03 13:42:32;;;;;;;;;;;20.70;95.40;;;;;;4361209;32;43805;-79
2022/07/03 13:44:59;;;;;;;;;;;20.70;95.50;;;;;;4361493;32;42711;-77
2022/07/03 13:47:26;;;;;;;;;;;20.70;95.60;;;;;;4374997;32;43597;-78
2022/07/03 13:49:53;;;;;;;;;;;20.70;95.10;;;;;;4361172;32;44072;-77
2022/07/03 13:52:20;;;;;;;;;;;20.80;95.00;;;;;;4374526;32;43300;-77
2022/07/03 13:54:50;;;;;;;;;;;20.70;95.00;;;;;;4374562;32;43478;-77
2022/07/03 13:57:17;;;;;;;;;;;20.70;95.10;;;;;;4374352;32;43869;-78
2022/07/03 13:59:45;;;;;;;;;;;20.70;95.10;;;;;;4374798;32;43766;-78
2022/07/03 14:02:12;;;;;;;;;;;20.80;95.10;;;;;;4358348;33;44261;-77
2022/07/03 14:04:39;;;;;;;;;;;20.80;95.10;;;;;;4358586;33;44922;-76
2022/07/03 14:07:07;;;;;;;;;;;20.80;94.80;;;;;;4358595;33;44601;-78
2022/07/03 14:09:34;;;;;;;;;;;20.80;94.50;;;;;;4359053;33;43800;-77
2022/07/03 14:12:01;;;;;;;;;;;20.80;94.80;;;;;;4358053;33;43980;-76
2022/07/03 14:14:28;;;;;;;;;;;20.80;94.40;;;;;;4358806;33;43966;-77
2022/07/03 14:16:55;;;;;;;;;;;20.90;94.40;;;;;;4360128;32;43481;-78
2022/07/03 14:19:23;;;;;;;;;;;20.90;94.90;;;;;;4361519;32;44219;-77
2022/07/03 14:21:50;;;;;;;;;;;20.90;94.30;;;;;;4362179;32;44223;-79
2022/07/03 14:24:17;;;;;;;;;;;20.90;94.40;;;;;;4361417;32;42620;-76
2022/07/03 14:32:30;;;;;;;;;;;21.00;94.00;;;;;;4362602;32;43273;-77
2022/07/03 14:34:59;;;;;;;;;;;21.00;94.40;;;;;;4361884;32;43901;-78
2022/07/03 14:37:26;;;;;;;;;;;21.00;93.80;;;;;;4360820;32;44287;-80
2022/07/03 14:39:54;;;;;;;;;;;21.00;93.50;;;;;;4362291;32;44227;-79
2022/07/03 14:42:21;;;;;;;;;;;21.00;94.00;;;;;;4361996;32;20051;-76
2022/07/03 14:44:48;;;;;;;;;;;21.00;93.70;;;;;;4362067;32;44096;-78